createdAt,value
2019-05-21T00:01:25.837Z,33.33
2019-05-21T00:03:56.010Z,32.37
2019-05-21T00:06:26.174Z,28.90
2019-05-21T00:08:56.413Z,29.80
2019-05-21T00:11:26.480Z,30.57
2019-05-21T00:13:56.542Z,33.10
2019-05-21T00:16:26.645Z,28.93
2019-05-21T00:18:56.865Z,36.90
2019-05-21T00:21:26.974Z,31.20
2019-05-21T00:23:57.212Z,31.37
2019-05-21T00:26:27.369Z,31.27
2019-05-21T00:29:34.690Z,36.60
2019-05-21T00:32:40.837Z,34.97
2019-05-21T00:35:50.204Z,35.63
2019-05-21T00:38:56.523Z,33.07
2019-05-21T00:42:00.134Z,28.90
2019-05-21T00:44:35.013Z,35.07
2019-05-21T00:47:06.838Z,36.43
2019-05-21T00:49:37.031Z,32.07
2019-05-21T00:52:08.951Z,39.30
2019-05-21T00:54:39.699Z,44.93
2019-05-21T00:57:10.005Z,41.10
2019-05-21T00:59:40.238Z,41.30
2019-05-21T01:02:10.479Z,41.23
2019-05-21T01:04:40.645Z,44.07
2019-05-21T01:07:10.969Z,49.13
2019-05-21T01:09:41.258Z,50.63
2019-05-21T01:12:11.314Z,48.03
2019-05-21T01:14:41.529Z,46.70
2019-05-21T01:17:11.830Z,47.13
2019-05-21T01:19:42.115Z,51.90
2019-05-21T01:22:12.312Z,43.83
2019-05-21T01:24:42.503Z,46.77
2019-05-21T01:27:13.755Z,42.47
2019-05-21T01:29:44.080Z,38.50
2019-05-21T01:32:14.328Z,40.70
2019-05-21T01:34:44.648Z,37.93
2019-05-21T01:37:14.817Z,39.93
2019-05-21T01:39:44.980Z,40.87
2019-05-21T01:42:15.106Z,37.57
2019-05-21T01:44:45.254Z,39.67
2019-05-21T01:47:15.384Z,38.23
2019-05-21T01:49:45.564Z,35.53
2019-05-21T01:52:15.670Z,38.37
2019-05-21T01:54:45.902Z,38.33
2019-05-21T01:57:16.130Z,33.77
2019-05-21T01:59:46.193Z,35.80
2019-05-21T02:02:16.451Z,35.53
2019-05-21T02:04:46.521Z,33.63
2019-05-21T02:07:16.739Z,36.03
2019-05-21T02:09:58.996Z,35.53
2019-05-21T02:12:29.223Z,32.50
2019-05-21T02:14:59.530Z,32.40
2019-05-21T02:17:29.709Z,34.60
2019-05-21T02:19:59.780Z,31.83
2019-05-21T02:22:29.921Z,32.10
2019-05-21T02:25:00.010Z,38.57
2019-05-21T02:27:30.159Z,35.60
2019-05-21T02:30:00.229Z,33.53
2019-05-21T02:32:30.475Z,29.83
2019-05-21T02:35:00.579Z,34.60
2019-05-21T02:37:30.827Z,30.90
2019-05-21T02:40:00.882Z,33.97
2019-05-21T02:42:31.100Z,38.03
2019-05-21T02:45:01.255Z,33.27
2019-05-21T02:47:31.451Z,40.37
2019-05-21T02:50:01.629Z,39.20
2019-05-21T02:52:31.850Z,38.13
2019-05-21T02:55:02.231Z,40.80
2019-05-21T02:57:40.265Z,40.03
2019-05-21T03:00:28.019Z,39.03
2019-05-21T03:02:58.276Z,42.10
2019-05-21T03:05:28.735Z,46.00
2019-05-21T03:07:58.933Z,44.17
2019-05-21T03:10:29.055Z,43.07
2019-05-21T03:12:59.166Z,42.13
2019-05-21T03:15:29.361Z,41.17
2019-05-21T03:17:59.551Z,41.20
2019-05-21T03:20:29.887Z,44.77
2019-05-21T03:23:01.129Z,43.30
2019-05-21T03:25:31.318Z,40.77
2019-05-21T03:28:01.487Z,40.37
2019-05-21T03:30:31.939Z,40.70
2019-05-21T03:33:02.149Z,40.70
2019-05-21T03:35:32.395Z,44.23
2019-05-21T03:38:02.747Z,39.63
2019-05-21T03:40:34.081Z,49.57
2019-05-21T03:43:05.332Z,45.53
2019-05-21T03:45:36.911Z,49.17
2019-05-21T03:48:08.060Z,59.77
2019-05-21T03:50:38.299Z,53.63
2019-05-21T03:53:08.428Z,57.67
2019-05-21T03:55:38.548Z,56.07
2019-05-21T03:58:08.768Z,54.20
2019-05-21T04:00:38.962Z,52.00
2019-05-21T04:03:09.317Z,59.40
2019-05-21T04:05:39.480Z,59.73
2019-05-21T04:08:09.712Z,56.97
2019-05-21T04:10:39.838Z,59.80
2019-05-21T04:13:10.040Z,52.30
2019-05-21T04:16:06.607Z,52.60
2019-05-21T04:18:44.828Z,47.17
2019-05-21T04:21:14.906Z,51.47
2019-05-21T04:23:45.103Z,49.40
2019-05-21T04:26:15.194Z,52.13
2019-05-21T04:28:45.394Z,48.53
2019-05-21T04:31:15.528Z,47.53
2019-05-21T04:33:45.721Z,43.40
2019-05-21T04:36:15.912Z,45.47
2019-05-21T04:38:45.999Z,53.90
2019-05-21T04:41:16.145Z,48.87
2019-05-21T04:43:46.429Z,48.57
2019-05-21T04:46:16.603Z,45.97
2019-05-21T04:48:46.751Z,50.70
2019-05-21T04:51:16.808Z,44.57
2019-05-21T04:53:48.076Z,45.37
2019-05-21T04:56:18.257Z,39.03
2019-05-21T04:58:48.355Z,42.90
2019-05-21T05:01:18.670Z,43.87
2019-05-21T05:03:48.730Z,45.23
2019-05-21T05:06:19.018Z,43.63
2019-05-21T05:08:49.283Z,46.67
2019-05-21T05:11:19.495Z,47.77
2019-05-21T05:13:50.139Z,43.23
2019-05-21T05:16:20.307Z,44.40
2019-05-21T05:18:50.558Z,37.77
2019-05-21T05:21:20.750Z,29.03
2019-05-21T05:23:51.025Z,31.40
2019-05-21T05:26:21.226Z,25.23
2019-05-21T05:28:51.402Z,27.23
2019-05-21T05:31:21.635Z,27.10
2019-05-21T05:33:51.765Z,31.20
2019-05-21T05:36:21.929Z,25.43
2019-05-21T05:38:52.284Z,25.77
2019-05-21T05:41:22.547Z,23.63
2019-05-21T05:43:52.924Z,20.13
2019-05-21T05:46:24.109Z,18.27
2019-05-21T05:49:01.774Z,20.57
2019-05-21T05:51:32.173Z,24.00
2019-05-21T05:54:02.302Z,20.50
2019-05-21T05:56:32.513Z,23.37
2019-05-21T05:59:02.701Z,19.13
2019-05-21T06:01:33.971Z,19.10
2019-05-21T06:04:04.189Z,20.00
2019-05-21T06:06:34.332Z,23.50
2019-05-21T06:09:05.741Z,20.37
2019-05-21T06:11:35.936Z,20.20
2019-05-21T06:14:06.736Z,19.90
2019-05-21T06:16:36.962Z,30.57
2019-05-21T06:19:07.203Z,25.37
2019-05-21T06:21:37.462Z,26.27
2019-05-21T06:24:07.906Z,29.40
2019-05-21T06:26:38.301Z,29.37
2019-05-21T06:29:08.477Z,33.27
2019-05-21T06:31:38.661Z,42.23
2019-05-21T06:34:08.818Z,42.03
2019-05-21T06:36:39.111Z,46.40
2019-05-21T06:39:09.395Z,44.37
2019-05-21T06:41:39.610Z,45.30
2019-05-21T06:44:09.786Z,40.70
2019-05-21T06:46:40.930Z,34.93
2019-05-21T06:49:11.172Z,21.63
2019-05-21T06:51:41.524Z,24.33
2019-05-21T06:54:11.627Z,21.07
2019-05-21T06:56:41.675Z,16.40
2019-05-21T06:59:11.895Z,19.13
2019-05-21T07:01:42.123Z,22.13
2019-05-21T07:04:12.156Z,13.33
2019-05-21T07:06:44.743Z,12.27
2019-05-21T07:09:14.168Z,13.17
2019-05-21T07:11:44.254Z,16.20
2019-05-21T07:14:14.494Z,10.73
2019-05-21T07:16:44.766Z,11.40
2019-05-21T07:19:14.889Z,12.70
2019-05-21T07:21:45.086Z,12.83
2019-05-21T07:24:15.130Z,10.50
2019-05-21T07:26:45.415Z,9.33
2019-05-21T07:29:15.645Z,15.90
2019-05-21T07:31:45.890Z,10.50
2019-05-21T07:34:16.085Z,14.33
2019-05-21T07:36:46.246Z,12.27
2019-05-21T07:39:16.371Z,8.70
2019-05-21T07:41:46.581Z,7.20
2019-05-21T07:44:16.703Z,16.80
2019-05-21T07:46:48.484Z,7.03
2019-05-21T07:49:18.642Z,11.50
2019-05-21T07:51:49.311Z,9.00
2019-05-21T07:54:19.381Z,9.50
2019-05-21T07:56:49.727Z,10.70
2019-05-21T07:59:19.910Z,7.70
2019-05-21T08:01:49.962Z,7.47
2019-05-21T08:04:20.186Z,5.77
2019-05-21T08:06:50.294Z,7.97
2019-05-21T08:09:20.403Z,8.77
2019-05-21T08:11:50.442Z,5.80
2019-05-21T08:14:20.688Z,9.83
2019-05-21T08:16:51.014Z,7.90
2019-05-21T08:19:21.859Z,6.97
2019-05-21T08:21:52.327Z,8.07
2019-05-21T08:24:22.704Z,5.00
2019-05-21T08:26:52.974Z,8.00
2019-05-21T08:29:27.025Z,6.53
2019-05-21T08:31:57.312Z,3.60
2019-05-21T08:34:27.456Z,5.73
2019-05-21T08:36:57.953Z,5.47
2019-05-21T08:39:29.356Z,4.67
2019-05-21T08:41:59.749Z,4.57
2019-05-21T08:44:30.081Z,5.43
2019-05-21T08:47:01.137Z,6.40
2019-05-21T08:49:31.437Z,4.93
2019-05-21T08:52:01.745Z,5.70
2019-05-21T08:54:47.123Z,5.80
2019-05-21T08:57:17.526Z,9.60
2019-05-21T08:59:49.294Z,5.67
2019-05-21T09:02:19.539Z,7.30
2019-05-21T09:04:49.860Z,9.93
2019-05-21T09:07:20.030Z,5.93
2019-05-21T09:09:51.740Z,5.47
2019-05-21T09:12:22.154Z,4.73
2019-05-21T09:14:52.269Z,4.13
2019-05-21T09:17:22.426Z,7.10
2019-05-21T09:19:52.587Z,7.43
2019-05-21T09:22:22.881Z,5.30
2019-05-21T09:24:53.029Z,7.47
2019-05-21T09:27:23.266Z,3.87
2019-05-21T09:29:53.544Z,5.03
2019-05-21T09:32:23.618Z,7.27
2019-05-21T09:34:53.816Z,8.27
2019-05-21T09:37:24.067Z,11.97
2019-05-21T09:39:54.386Z,9.37
2019-05-21T09:42:24.663Z,9.03
2019-05-21T09:44:54.871Z,7.13
2019-05-21T09:47:25.974Z,8.50
2019-05-21T09:49:56.103Z,12.63
2019-05-21T09:52:26.260Z,12.00
2019-05-21T09:54:56.417Z,10.40
2019-05-21T09:57:34.193Z,8.20
2019-05-21T10:00:11.454Z,8.53
2019-05-21T10:02:41.831Z,10.80
2019-05-21T10:05:12.587Z,9.90
2019-05-21T10:07:43.064Z,11.07
2019-05-21T10:10:13.231Z,13.23
2019-05-21T10:12:43.470Z,11.20
2019-05-21T10:15:13.639Z,15.33
2019-05-21T10:17:43.814Z,94.73
2019-05-21T10:20:14.403Z,60.07
2019-05-21T10:22:44.668Z,20.07
2019-05-21T10:25:16.113Z,12.93
2019-05-21T10:27:46.445Z,11.93
2019-05-21T10:30:16.757Z,13.77
2019-05-21T10:32:47.127Z,12.27
2019-05-21T10:35:17.413Z,10.37
2019-05-21T10:37:55.065Z,12.60
2019-05-21T10:40:19.832Z,11.93
2019-05-21T10:42:49.934Z,16.47
2019-05-21T10:45:20.290Z,15.30
2019-05-21T10:47:50.459Z,15.90
2019-05-21T10:50:20.751Z,12.90
2019-05-21T10:52:51.122Z,12.70
2019-05-21T10:55:21.385Z,17.90
2019-05-21T10:57:51.752Z,13.07
2019-05-21T11:00:23.295Z,14.47
2019-05-21T11:03:05.058Z,15.87
2019-05-21T11:05:37.477Z,16.93
2019-05-21T11:08:24.986Z,15.40
2019-05-21T11:10:39.911Z,14.07
2019-05-21T11:13:10.275Z,13.17
2019-05-21T11:15:40.461Z,16.13
2019-05-21T11:18:11.820Z,14.63
2019-05-21T11:20:42.513Z,20.70
2019-05-21T11:23:12.721Z,16.33
2019-05-21T11:25:42.893Z,14.83
2019-05-21T11:28:12.998Z,21.10
2019-05-21T11:30:43.225Z,25.20
2019-05-21T11:33:13.332Z,18.20
2019-05-21T11:35:43.587Z,16.57
2019-05-21T11:38:14.048Z,16.13
2019-05-21T11:40:44.244Z,13.77
2019-05-21T11:43:14.521Z,19.23
2019-05-21T11:45:44.751Z,17.17
2019-05-21T11:48:15.181Z,19.50
2019-05-21T11:50:45.360Z,21.80
2019-05-21T11:53:15.517Z,20.30
2019-05-21T11:55:45.680Z,17.40
2019-05-21T11:58:16.014Z,18.40
2019-05-21T12:00:46.323Z,19.10
2019-05-21T12:03:16.412Z,14.60
2019-05-21T12:05:46.670Z,16.90
2019-05-21T12:08:16.965Z,18.13
2019-05-21T12:10:47.234Z,15.47
2019-05-21T12:13:20.486Z,20.87
2019-05-21T12:15:49.387Z,18.93
2019-05-21T12:18:19.506Z,13.43
2019-05-21T12:20:50.551Z,14.73
2019-05-21T12:23:20.691Z,14.90
2019-05-21T12:25:51.895Z,14.80
2019-05-21T12:28:22.180Z,15.00
2019-05-21T12:30:52.453Z,13.77
2019-05-21T12:33:22.583Z,14.70
2019-05-21T12:35:52.829Z,12.63
2019-05-21T12:38:23.014Z,16.90
2019-05-21T12:40:53.156Z,14.00
2019-05-21T12:43:23.209Z,13.97
2019-05-21T12:45:53.318Z,12.27
2019-05-21T12:48:23.542Z,16.37
2019-05-21T12:50:53.759Z,17.43
2019-05-21T12:53:23.872Z,18.70
2019-05-21T12:55:54.027Z,14.70
2019-05-21T12:58:24.314Z,10.73
2019-05-21T13:00:54.725Z,15.67
2019-05-21T13:03:25.006Z,10.17
2019-05-21T13:05:55.410Z,11.93
2019-05-21T13:08:25.566Z,11.83
2019-05-21T13:10:55.669Z,14.47
2019-05-21T13:13:25.857Z,11.87
2019-05-21T13:15:56.074Z,12.47
2019-05-21T13:18:26.366Z,12.90
2019-05-21T13:20:56.521Z,10.47
2019-05-21T13:23:27.609Z,12.77
2019-05-21T13:25:58.004Z,11.73
2019-05-21T13:28:28.207Z,9.73
2019-05-21T13:30:58.471Z,8.77
2019-05-21T13:33:28.523Z,8.43
2019-05-21T13:35:58.663Z,9.67
2019-05-21T13:38:28.834Z,9.47
2019-05-21T13:40:59.984Z,12.03
2019-05-21T13:43:30.207Z,9.80
2019-05-21T13:46:00.327Z,8.43
2019-05-21T13:48:30.467Z,8.60
2019-05-21T13:51:01.877Z,9.57
2019-05-21T13:53:32.069Z,10.43
2019-05-21T13:56:02.540Z,9.90
2019-05-21T13:58:32.813Z,10.07
2019-05-21T14:01:04.221Z,8.83
2019-05-21T14:03:34.958Z,9.30
2019-05-21T14:06:05.277Z,9.60
2019-05-21T14:08:35.679Z,7.07
2019-05-21T14:11:06.425Z,13.30
2019-05-21T14:13:36.720Z,10.10
2019-05-21T14:16:07.085Z,9.27
2019-05-21T14:18:37.262Z,6.57
2019-05-21T14:21:07.644Z,7.70
2019-05-21T14:23:38.121Z,6.07
2019-05-21T14:26:08.505Z,7.07
2019-05-21T14:28:38.810Z,8.37
2019-05-21T14:31:08.982Z,9.63
2019-05-21T14:33:39.143Z,8.37
2019-05-21T14:36:09.396Z,16.33
2019-05-21T14:38:39.503Z,8.83
2019-05-21T14:41:09.702Z,7.60
2019-05-21T14:43:39.790Z,9.03
2019-05-21T14:46:09.951Z,11.50
2019-05-21T14:48:40.080Z,11.13
2019-05-21T14:51:13.453Z,11.77
2019-05-21T14:53:42.400Z,7.83
2019-05-21T14:56:12.663Z,10.20
2019-05-21T14:58:43.057Z,9.13
2019-05-21T15:01:13.464Z,7.30
2019-05-21T15:03:43.754Z,6.10
2019-05-21T15:06:14.210Z,8.03
2019-05-21T15:08:44.610Z,10.87
2019-05-21T15:11:14.935Z,9.53
2019-05-21T15:13:45.028Z,7.73
2019-05-21T15:16:15.499Z,8.87
2019-05-21T15:18:46.929Z,8.27
2019-05-21T15:21:22.411Z,7.13
2019-05-21T15:23:52.873Z,7.90
2019-05-21T15:26:23.555Z,6.63
2019-05-21T15:28:54.007Z,8.97
2019-05-21T15:31:24.250Z,8.50
2019-05-21T15:33:54.446Z,6.20
2019-05-21T15:36:24.555Z,12.03
2019-05-21T15:38:54.768Z,7.33
2019-05-21T15:41:25.131Z,6.37
2019-05-21T15:43:55.261Z,7.50
2019-05-21T15:46:25.465Z,5.97
2019-05-21T15:48:55.615Z,8.77
2019-05-21T15:51:25.858Z,10.33
2019-05-21T15:53:56.078Z,7.47
2019-05-21T15:56:26.420Z,8.87
2019-05-21T15:58:56.996Z,7.60
2019-05-21T16:01:27.302Z,10.50
2019-05-21T16:03:57.455Z,10.57
2019-05-21T16:06:28.962Z,7.63
2019-05-21T16:08:59.134Z,7.73
2019-05-21T16:11:29.509Z,8.23
2019-05-21T16:13:59.771Z,8.47
2019-05-21T16:16:30.066Z,11.07
2019-05-21T16:19:00.332Z,8.53
2019-05-21T16:21:30.687Z,7.17
2019-05-21T16:24:01.801Z,8.77
2019-05-21T16:26:31.976Z,9.03
2019-05-21T16:29:02.243Z,7.53
2019-05-21T16:31:32.397Z,9.83
2019-05-21T16:34:02.674Z,9.13
2019-05-21T16:36:32.959Z,7.43
2019-05-21T16:39:04.939Z,8.17
2019-05-21T16:41:44.214Z,5.43
2019-05-21T16:44:06.962Z,8.27
2019-05-21T16:46:37.186Z,10.63
2019-05-21T16:49:07.539Z,5.67
2019-05-21T16:51:37.897Z,3.83
2019-05-21T16:54:08.084Z,6.70
2019-05-21T16:56:38.205Z,5.47
2019-05-21T16:59:08.390Z,4.93
2019-05-21T17:01:38.563Z,4.73
2019-05-21T17:04:08.821Z,8.00
2019-05-21T17:06:39.035Z,3.63
2019-05-21T17:09:12.813Z,7.20
2019-05-21T17:11:43.224Z,3.30
2019-05-21T17:14:13.445Z,8.00
2019-05-21T17:16:43.630Z,4.67
2019-05-21T17:19:13.822Z,2.70
2019-05-21T17:21:44.074Z,3.67
2019-05-21T17:24:15.176Z,4.20
2019-05-21T17:26:45.471Z,3.60
2019-05-21T17:29:15.858Z,2.67
2019-05-21T17:31:46.234Z,5.60
2019-05-21T17:34:17.481Z,6.07
2019-05-21T17:36:48.675Z,3.93
2019-05-21T17:39:18.867Z,6.57
2019-05-21T17:41:49.086Z,4.03
2019-05-21T17:44:19.284Z,4.23
2019-05-21T17:46:49.549Z,5.30
2019-05-21T17:49:19.818Z,4.20
2019-05-21T17:51:51.305Z,4.73
2019-05-21T17:54:21.594Z,3.30
2019-05-21T17:56:51.790Z,4.83
2019-05-21T17:59:22.290Z,3.30
2019-05-21T18:01:53.275Z,2.60
2019-05-21T18:04:23.706Z,3.83
2019-05-21T18:06:53.928Z,2.63
2019-05-21T18:09:24.223Z,1.90
2019-05-21T18:11:54.359Z,3.07
2019-05-21T18:14:25.202Z,5.00
2019-05-21T18:16:55.392Z,3.47
2019-05-21T18:19:25.646Z,2.63
2019-05-21T18:21:55.879Z,3.03
2019-05-21T18:24:26.907Z,4.60
2019-05-21T18:26:57.169Z,3.53
2019-05-21T18:29:27.510Z,2.40
2019-05-21T18:31:57.878Z,3.93
2019-05-21T18:34:28.098Z,3.30
2019-05-21T18:36:58.291Z,6.33
2019-05-21T18:39:28.832Z,3.57
2019-05-21T18:41:59.076Z,13.90
2019-05-21T18:44:29.489Z,5.00
2019-05-21T18:46:59.762Z,5.63
2019-05-21T18:49:29.975Z,2.97
2019-05-21T18:52:00.072Z,3.37
2019-05-21T18:54:30.415Z,5.97
2019-05-21T18:57:00.693Z,3.27
2019-05-21T18:59:31.002Z,7.43
2019-05-21T19:02:01.317Z,3.07
2019-05-21T19:04:31.667Z,3.20
2019-05-21T19:07:01.829Z,3.40
2019-05-21T19:09:32.249Z,1.93
2019-05-21T19:12:03.009Z,4.17
2019-05-21T19:14:33.293Z,4.00
2019-05-21T19:17:03.541Z,2.40
2019-05-21T19:19:33.794Z,6.63
2019-05-21T19:22:04.109Z,4.00
2019-05-21T19:24:35.317Z,4.40
2019-05-21T19:27:05.736Z,3.53
2019-05-21T19:29:36.024Z,3.97
2019-05-21T19:32:07.384Z,5.07
2019-05-21T19:34:37.597Z,3.57
2019-05-21T19:37:07.975Z,2.27
2019-05-21T19:39:39.685Z,2.90
2019-05-21T19:42:10.311Z,1.70
2019-05-21T19:44:40.569Z,4.33
2019-05-21T19:47:11.949Z,5.33
2019-05-21T19:49:42.316Z,2.10
2019-05-21T19:52:13.692Z,2.87
2019-05-21T19:54:45.011Z,3.17
2019-05-21T19:57:15.961Z,2.30
2019-05-21T19:59:47.430Z,2.83
2019-05-21T20:02:18.811Z,5.73
2019-05-21T20:04:49.652Z,4.10
2019-05-21T20:07:21.484Z,3.23
2019-05-21T20:09:52.116Z,3.53
2019-05-21T20:12:24.021Z,4.07
2019-05-21T20:14:54.479Z,4.10
2019-05-21T20:17:25.719Z,2.63
2019-05-21T20:19:56.575Z,2.63
2019-05-21T20:22:27.461Z,3.87
2019-05-21T20:24:58.696Z,2.17
2019-05-21T20:27:30.271Z,6.53
2019-05-21T20:30:12.362Z,4.27
2019-05-21T20:32:36.079Z,1.80
2019-05-21T20:35:08.277Z,2.43
2019-05-21T20:37:40.411Z,2.10
2019-05-21T20:40:12.891Z,2.13
2019-05-21T20:42:44.743Z,4.10
2019-05-21T20:45:16.754Z,2.33
2019-05-21T20:47:51.710Z,4.80
2019-05-21T20:50:23.347Z,4.40
2019-05-21T20:52:55.581Z,3.57
2019-05-21T20:55:26.111Z,2.60
2019-05-21T20:57:57.013Z,2.50
2019-05-21T21:00:40.775Z,4.13
2019-05-21T21:03:13.608Z,2.73
2019-05-21T21:05:47.671Z,4.00
2019-05-21T21:08:19.608Z,2.40
2019-05-21T21:10:49.995Z,4.47
2019-05-21T21:13:20.327Z,3.43
2019-05-21T21:15:50.568Z,3.37
2019-05-21T21:18:21.503Z,4.40
2019-05-21T21:20:51.792Z,2.97
2019-05-21T21:23:25.130Z,2.83
2019-05-21T21:25:55.704Z,6.27
2019-05-21T21:28:25.908Z,4.63
2019-05-21T21:30:57.522Z,3.20
2019-05-21T21:33:29.558Z,4.17
2019-05-21T21:35:59.805Z,4.33
2019-05-21T21:38:31.672Z,4.30
2019-05-21T21:41:01.778Z,3.03
2019-05-21T21:43:31.840Z,3.90
2019-05-21T21:46:02.312Z,3.10
2019-05-21T21:48:32.747Z,3.43
2019-05-21T21:51:04.703Z,4.10
2019-05-21T21:53:36.067Z,3.57
2019-05-21T21:56:06.490Z,4.70
2019-05-21T21:58:36.929Z,4.17
2019-05-21T22:01:43.390Z,4.27
2019-05-21T22:04:16.410Z,4.77
2019-05-21T22:06:48.494Z,3.63
2019-05-21T22:09:29.194Z,4.03
2019-05-21T22:12:00.069Z,5.07
2019-05-21T22:14:31.118Z,5.30
2019-05-21T22:17:02.104Z,5.73
2019-05-21T22:19:32.629Z,3.37
2019-05-21T22:22:03.041Z,3.67
2019-05-21T22:24:33.539Z,5.63
2019-05-21T22:27:03.827Z,4.23
2019-05-21T22:29:34.079Z,6.23
2019-05-21T22:32:04.530Z,4.20
2019-05-21T22:34:34.914Z,4.50
2019-05-21T22:37:07.933Z,3.83
2019-05-21T22:39:40.778Z,5.10
2019-05-21T22:42:11.038Z,9.20
2019-05-21T22:44:41.570Z,5.53
2019-05-21T22:47:12.241Z,4.23
2019-05-21T22:49:42.429Z,4.77
2019-05-21T22:52:13.149Z,5.00
2019-05-21T22:54:43.745Z,7.30
2019-05-21T22:57:14.031Z,4.40
2019-05-21T22:59:46.162Z,10.10
2019-05-21T23:02:21.442Z,4.53
2019-05-21T23:04:51.844Z,6.70
2019-05-21T23:07:24.010Z,4.90
2019-05-21T23:09:55.314Z,5.27
2019-05-21T23:12:25.656Z,4.90
2019-05-21T23:14:55.909Z,5.70
2019-05-21T23:17:27.621Z,6.13
2019-05-21T23:20:13.429Z,6.80
2019-05-21T23:22:47.313Z,6.20
2019-05-21T23:25:19.467Z,5.00
2019-05-21T23:27:49.847Z,7.07
2019-05-21T23:30:20.336Z,4.90
2019-05-21T23:32:51.402Z,5.40
2019-05-21T23:35:21.958Z,4.40
2019-05-21T23:37:53.646Z,7.43
2019-05-21T23:40:24.407Z,4.77
2019-05-21T23:42:55.097Z,8.43
2019-05-21T23:45:25.437Z,4.50
2019-05-21T23:47:55.520Z,7.87
2019-05-21T23:50:26.137Z,5.23
2019-05-21T23:52:56.410Z,5.73
2019-05-21T23:55:26.638Z,5.07
2019-05-21T23:57:56.869Z,5.93
